createdAt,value
2022-11-10T00:01:47.085Z,0.10
2022-11-10T00:04:46.350Z,0.10
2022-11-10T00:07:44.725Z,0.10
2022-11-10T00:10:59.445Z,0.10
2022-11-10T00:14:13.235Z,2.60
2022-11-10T00:17:12.786Z,1.23
2022-11-10T00:20:12.189Z,1.45
2022-11-10T00:23:11.506Z,2.05
2022-11-10T00:26:13.842Z,0.10
2022-11-10T00:29:13.087Z,1.65
2022-11-10T00:32:12.021Z,0.10
2022-11-10T00:35:11.416Z,0.03
2022-11-10T00:38:09.780Z,3.20
2022-11-10T00:41:08.839Z,0.32
2022-11-10T00:44:07.219Z,0.20
2022-11-10T00:47:06.882Z,1.75
2022-11-10T00:50:05.582Z,2.08
2022-11-10T00:53:04.862Z,0.10
2022-11-10T00:56:03.254Z,1.10
2022-11-10T00:59:02.241Z,0.63
2022-11-10T01:02:00.679Z,2.10
2022-11-10T01:04:59.958Z,0.10
2022-11-10T01:08:00.193Z,4.32
2022-11-10T01:11:09.760Z,0.40
2022-11-10T01:14:08.882Z,1.88
2022-11-10T01:17:07.847Z,0.65
2022-11-10T01:20:09.286Z,4.22
2022-11-10T01:23:08.281Z,1.35
2022-11-10T01:26:08.460Z,0.10
2022-11-10T01:29:07.652Z,0.28
2022-11-10T01:32:06.777Z,3.72
2022-11-10T01:35:06.631Z,4.75
2022-11-10T01:38:05.066Z,0.57
2022-11-10T01:41:06.904Z,0.28
2022-11-10T01:44:23.433Z,3.38
2022-11-10T01:47:22.686Z,0.75
2022-11-10T01:50:22.905Z,0.20
2022-11-10T01:53:25.978Z,0.52
2022-11-10T01:56:26.332Z,0.68
2022-11-10T01:59:28.656Z,0.22
2022-11-10T02:02:34.429Z,0.57
2022-11-10T02:05:33.492Z,0.20
2022-11-10T02:08:32.305Z,2.28
2022-11-10T02:11:32.771Z,0.60
2022-11-10T02:14:31.589Z,0.20
2022-11-10T02:17:30.909Z,0.28
2022-11-10T02:20:29.376Z,0.60
2022-11-10T02:23:49.264Z,0.93
2022-11-10T02:26:54.648Z,0.13
2022-11-10T02:29:54.245Z,0.20
2022-11-10T02:32:52.646Z,0.95
2022-11-10T02:35:51.867Z,1.27
2022-11-10T02:38:50.389Z,2.08
2022-11-10T02:41:49.411Z,0.43
2022-11-10T02:44:48.488Z,0.80
2022-11-10T02:47:47.652Z,1.90
2022-11-10T02:50:46.271Z,1.05
2022-11-10T02:53:45.385Z,0.60
2022-11-10T02:56:44.208Z,3.00
2022-11-10T02:59:43.235Z,2.00
2022-11-10T03:02:41.709Z,0.30
2022-11-10T03:05:40.905Z,0.10
2022-11-10T03:08:39.791Z,0.70
2022-11-10T03:11:38.884Z,0.25
2022-11-10T03:15:14.162Z,2.05
2022-11-10T03:18:13.202Z,0.35
2022-11-10T03:21:11.485Z,0.20
2022-11-10T03:24:10.498Z,0.20
2022-11-10T03:27:08.654Z,0.43
2022-11-10T03:30:08.394Z,0.03
2022-11-10T03:33:07.019Z,0.03
2022-11-10T03:36:06.318Z,0.20
2022-11-10T03:39:04.798Z,0.40
2022-11-10T03:42:03.829Z,0.35
2022-11-10T03:45:02.746Z,1.30
2022-11-10T03:48:01.575Z,0.77
2022-11-10T03:51:00.003Z,0.20
2022-11-10T03:53:58.749Z,0.50
2022-11-10T03:56:57.312Z,0.57
2022-11-10T03:59:56.030Z,0.30
2022-11-10T04:02:54.229Z,2.20
2022-11-10T04:06:08.385Z,0.13
2022-11-10T04:09:07.981Z,0.15
2022-11-10T04:12:24.948Z,0.43
2022-11-10T04:15:38.907Z,0.68
2022-11-10T04:18:37.858Z,2.28
2022-11-10T04:21:36.179Z,1.02
2022-11-10T04:24:34.931Z,1.13
2022-11-10T04:27:33.324Z,0.65
2022-11-10T04:30:32.039Z,0.20
2022-11-10T04:33:30.264Z,0.80
2022-11-10T04:36:32.196Z,0.38
2022-11-10T04:39:30.384Z,0.30
2022-11-10T04:42:29.082Z,0.73
2022-11-10T04:45:27.537Z,0.38
2022-11-10T04:48:27.654Z,0.43
2022-11-10T04:51:29.084Z,0.45
2022-11-10T04:54:27.935Z,0.35
2022-11-10T04:57:26.627Z,0.65
2022-11-10T05:00:25.583Z,0.77
2022-11-10T05:03:24.310Z,0.50
2022-11-10T05:06:23.540Z,0.35
2022-11-10T05:09:21.712Z,2.47
2022-11-10T05:12:22.410Z,1.05
2022-11-10T05:15:21.133Z,0.45
2022-11-10T05:18:20.291Z,0.43
2022-11-10T05:21:18.480Z,0.95
2022-11-10T05:24:17.244Z,1.25
2022-11-10T05:27:15.426Z,0.40
2022-11-10T05:30:14.573Z,0.95
2022-11-10T05:33:12.769Z,1.10
2022-11-10T05:36:11.592Z,0.20
2022-11-10T05:39:09.971Z,0.88
2022-11-10T05:42:08.958Z,1.30
2022-11-10T05:45:07.809Z,1.50
2022-11-10T05:48:07.393Z,0.20
2022-11-10T05:51:05.847Z,0.30
2022-11-10T05:54:05.048Z,0.47
2022-11-10T05:57:03.301Z,0.75
2022-11-10T06:00:02.191Z,0.50
2022-11-10T06:03:06.282Z,0.40
2022-11-10T06:06:05.601Z,0.65
2022-11-10T06:09:03.865Z,0.40
2022-11-10T06:12:03.998Z,0.82
2022-11-10T06:15:03.501Z,0.98
2022-11-10T06:18:02.604Z,0.30
2022-11-10T06:21:00.915Z,0.75
2022-11-10T06:23:59.658Z,0.40
2022-11-10T06:26:57.973Z,0.50
2022-11-10T06:29:56.745Z,0.98
2022-11-10T06:32:55.500Z,3.25
2022-11-10T06:35:54.780Z,0.40
2022-11-10T06:38:52.921Z,0.50
2022-11-10T06:41:51.801Z,0.68
2022-11-10T06:44:50.049Z,0.75
2022-11-10T06:47:49.273Z,1.55
2022-11-10T06:50:47.412Z,0.65
2022-11-10T06:53:46.395Z,0.65
2022-11-10T06:56:44.840Z,0.77
2022-11-10T06:59:43.808Z,1.00
2022-11-10T07:02:42.015Z,1.20
2022-11-10T07:05:41.069Z,1.05
2022-11-10T07:08:39.367Z,0.90
2022-11-10T07:11:38.139Z,3.08
2022-11-10T07:14:36.538Z,1.38
2022-11-10T07:17:41.429Z,1.73
2022-11-10T07:20:39.828Z,3.05
2022-11-10T07:23:38.669Z,1.33
2022-11-10T07:26:37.147Z,2.25
2022-11-10T07:29:35.876Z,1.63
2022-11-10T07:32:34.171Z,0.80
2022-11-10T07:35:34.898Z,1.15
2022-11-10T07:38:33.274Z,3.45
2022-11-10T07:41:32.142Z,1.15
2022-11-10T07:44:30.814Z,3.42
2022-11-10T07:47:29.622Z,3.90
2022-11-10T07:50:28.638Z,2.63
2022-11-10T07:53:27.482Z,1.50
2022-11-10T07:56:25.898Z,2.33
2022-11-10T07:59:25.210Z,1.23
2022-11-10T08:02:25.291Z,2.08
2022-11-10T08:05:24.335Z,1.73
2022-11-10T08:08:22.752Z,1.42
2022-11-10T08:11:21.821Z,1.60
2022-11-10T08:14:20.284Z,1.98
2022-11-10T08:17:19.398Z,1.52
2022-11-10T08:20:18.893Z,1.33
2022-11-10T08:23:18.722Z,1.67
2022-11-10T08:26:18.345Z,1.83
2022-11-10T08:29:17.206Z,2.30
2022-11-10T08:32:27.887Z,1.75
2022-11-10T08:35:29.853Z,2.05
2022-11-10T08:38:28.550Z,2.25
2022-11-10T08:41:27.783Z,3.72
2022-11-10T08:44:26.119Z,2.33
2022-11-10T08:47:24.956Z,2.63
2022-11-10T08:50:23.386Z,2.38
2022-11-10T08:53:25.421Z,2.03
2022-11-10T08:56:23.957Z,3.25
2022-11-10T08:59:22.932Z,2.55
2022-11-10T09:02:21.469Z,2.15
2022-11-10T09:05:20.556Z,3.00
2022-11-10T09:08:19.462Z,3.38
2022-11-10T09:11:18.446Z,2.25
2022-11-10T09:14:16.829Z,2.70
2022-11-10T09:17:15.745Z,4.05
2022-11-10T09:20:14.342Z,2.22
2022-11-10T09:23:16.984Z,2.95
2022-11-10T09:26:15.587Z,3.78
2022-11-10T09:29:14.590Z,3.65
2022-11-10T09:32:12.949Z,2.10
2022-11-10T09:35:13.819Z,2.65
2022-11-10T09:38:12.595Z,3.67
2022-11-10T09:41:15.933Z,2.88
2022-11-10T09:44:24.930Z,2.47
2022-11-10T09:47:58.652Z,3.65
2022-11-10T09:50:54.944Z,3.45
2022-11-10T09:54:26.654Z,2.78
2022-11-10T09:57:29.625Z,3.90
2022-11-10T10:00:32.334Z,2.97
2022-11-10T10:03:32.522Z,2.30
2022-11-10T10:06:49.991Z,3.92
2022-11-10T10:10:17.098Z,3.15
2022-11-10T10:13:28.310Z,2.47
2022-11-10T10:16:49.250Z,3.42
2022-11-10T10:20:04.000Z,2.75
2022-11-10T10:23:30.493Z,3.63
2022-11-10T10:29:44.904Z,3.90
2022-11-10T10:32:43.668Z,2.65
2022-11-10T10:35:44.103Z,3.17
2022-11-10T10:38:44.913Z,2.08
2022-11-10T10:41:46.377Z,3.30
2022-11-10T10:45:12.771Z,2.90
2022-11-10T10:48:28.537Z,2.42
2022-11-10T10:51:30.945Z,2.88
2022-11-10T10:54:32.895Z,2.80
2022-11-10T10:57:31.613Z,3.00
2022-11-10T11:00:29.924Z,2.63
2022-11-10T11:03:37.978Z,3.00
2022-11-10T11:06:36.936Z,3.22
2022-11-10T11:09:44.992Z,2.28
2022-11-10T11:12:43.157Z,3.63
2022-11-10T11:15:41.919Z,2.30
2022-11-10T11:18:41.051Z,2.97
2022-11-10T11:21:54.605Z,4.22
2022-11-10T11:25:14.940Z,3.33
2022-11-10T11:28:25.849Z,3.13
2022-11-10T11:31:46.067Z,4.15
2022-11-10T11:34:58.316Z,3.80
2022-11-10T11:38:14.281Z,3.17
2022-11-10T11:41:48.565Z,4.68
2022-11-10T11:45:07.852Z,5.60
2022-11-10T11:48:39.433Z,3.65
2022-11-10T11:51:55.603Z,3.97
2022-11-10T11:55:18.537Z,4.03
2022-11-10T11:58:32.476Z,5.50
2022-11-10T12:01:50.400Z,5.78
2022-11-10T12:05:12.536Z,4.70
2022-11-10T12:08:32.970Z,3.60
2022-11-10T12:11:54.601Z,3.83
2022-11-10T12:15:18.951Z,3.88
2022-11-10T12:18:35.760Z,3.85
2022-11-10T12:21:46.310Z,3.33
2022-11-10T12:25:09.264Z,2.97
2022-11-10T12:28:21.151Z,2.95
2022-11-10T12:31:24.042Z,3.05
2022-11-10T12:34:43.348Z,3.95
2022-11-10T12:37:48.396Z,3.33
2022-11-10T12:40:51.293Z,4.35
2022-11-10T12:44:24.834Z,3.90
2022-11-10T12:47:28.003Z,2.88
2022-11-10T12:50:41.859Z,4.00
2022-11-10T12:53:42.877Z,7.38
2022-11-10T12:56:49.475Z,5.93
2022-11-10T12:59:57.826Z,9.23
2022-11-10T13:02:57.022Z,10.35
2022-11-10T13:06:02.332Z,9.65
2022-11-10T13:09:00.742Z,9.23
2022-11-10T13:12:18.392Z,7.35
2022-11-10T13:15:47.526Z,6.78
2022-11-10T13:18:54.725Z,7.38
2022-11-10T13:22:12.099Z,7.53
2022-11-10T13:25:41.791Z,7.85
2022-11-10T13:29:00.811Z,7.25
2022-11-10T13:32:21.597Z,8.05
2022-11-10T13:35:55.148Z,8.38
2022-11-10T13:38:56.189Z,6.63
2022-11-10T13:42:24.342Z,5.07
2022-11-10T13:45:41.265Z,5.88
2022-11-10T13:49:02.799Z,6.70
2022-11-10T13:52:19.182Z,5.47
2022-11-10T13:55:41.071Z,5.82
2022-11-10T13:58:44.812Z,9.18
2022-11-10T14:01:43.052Z,4.78
2022-11-10T14:04:45.617Z,3.10
2022-11-10T14:07:46.832Z,3.10
2022-11-10T14:10:55.666Z,5.88
2022-11-10T14:13:59.872Z,3.00
2022-11-10T14:16:59.583Z,2.83
2022-11-10T14:19:57.872Z,2.17
2022-11-10T14:22:57.928Z,1.73
2022-11-10T14:26:03.903Z,3.80
2022-11-10T14:29:22.819Z,2.42
2022-11-10T14:32:25.234Z,1.40
2022-11-10T14:35:27.885Z,1.65
2022-11-10T14:38:31.909Z,1.33
2022-11-10T14:41:30.671Z,1.83
2022-11-10T14:44:31.049Z,1.92
2022-11-10T14:47:32.892Z,2.75
2022-11-10T14:50:35.151Z,1.35
2022-11-10T14:53:40.024Z,0.90
2022-11-10T14:56:39.274Z,1.20
2022-11-10T14:59:38.765Z,0.93
2022-11-10T15:02:37.682Z,2.97
2022-11-10T15:05:37.725Z,0.75
2022-11-10T15:08:36.988Z,0.93
2022-11-10T15:11:39.186Z,2.25
2022-11-10T15:14:40.293Z,1.10
2022-11-10T15:17:54.664Z,2.47
2022-11-10T15:21:11.399Z,1.55
2022-11-10T15:24:12.198Z,0.80
2022-11-10T15:27:29.213Z,0.60
2022-11-10T15:30:28.042Z,0.40
2022-11-10T15:33:31.431Z,1.25
2022-11-10T15:36:33.383Z,0.73
2022-11-10T15:39:31.820Z,0.50
2022-11-10T15:42:30.949Z,1.05
2022-11-10T15:45:29.125Z,0.60
2022-11-10T15:48:38.500Z,0.40
2022-11-10T15:51:36.747Z,0.55
2022-11-10T15:54:37.296Z,0.43
2022-11-10T15:57:35.644Z,0.68
2022-11-10T16:00:34.734Z,0.22
2022-11-10T16:03:33.189Z,0.35
2022-11-10T16:06:32.226Z,0.40
2022-11-10T16:09:30.476Z,0.73
2022-11-10T16:12:30.331Z,0.60
2022-11-10T16:15:29.772Z,0.65
2022-11-10T16:18:30.958Z,1.05
2022-11-10T16:21:30.201Z,0.75
2022-11-10T16:24:28.970Z,0.98
2022-11-10T16:27:27.379Z,0.50
2022-11-10T16:30:26.124Z,0.28
2022-11-10T16:33:28.180Z,0.40
2022-11-10T16:36:30.366Z,0.63
2022-11-10T16:39:30.301Z,0.30
2022-11-10T16:42:29.085Z,0.40
2022-11-10T16:45:30.539Z,0.60
2022-11-10T16:48:32.333Z,3.58
2022-11-10T16:51:49.028Z,0.68
2022-11-10T16:57:46.113Z,0.63
2022-11-10T17:00:46.804Z,0.82
2022-11-10T17:03:50.117Z,0.77
2022-11-10T17:06:49.008Z,0.68
2022-11-10T17:09:47.200Z,0.80
2022-11-10T17:12:46.337Z,1.63
2022-11-10T17:15:46.033Z,1.88
2022-11-10T17:18:45.399Z,1.27
2022-11-10T17:21:43.957Z,1.42
2022-11-10T17:24:42.820Z,1.13
2022-11-10T17:27:40.999Z,1.45
2022-11-10T17:30:40.915Z,1.83
2022-11-10T17:33:39.336Z,1.77
2022-11-10T17:36:38.909Z,2.08
2022-11-10T17:39:37.166Z,0.82
2022-11-10T17:42:36.204Z,1.15
2022-11-10T17:45:34.476Z,0.98
2022-11-10T17:48:33.284Z,1.30
2022-11-10T17:51:33.997Z,1.48
2022-11-10T17:54:33.115Z,1.70
2022-11-10T17:57:31.563Z,0.88
2022-11-10T18:00:30.715Z,0.70
2022-11-10T18:03:29.001Z,1.15
2022-11-10T18:06:27.955Z,0.85
2022-11-10T18:09:26.077Z,0.70
2022-11-10T18:12:27.943Z,2.03
2022-11-10T18:15:26.439Z,0.98
2022-11-10T18:18:25.489Z,1.13
2022-11-10T18:21:23.793Z,0.70
2022-11-10T18:24:22.618Z,0.50
2022-11-10T18:27:20.971Z,1.50
2022-11-10T18:30:20.275Z,0.70
2022-11-10T18:33:18.581Z,1.00
2022-11-10T18:36:17.578Z,1.00
2022-11-10T18:39:15.761Z,1.02
2022-11-10T18:42:14.821Z,1.08
2022-11-10T18:45:13.527Z,0.80
2022-11-10T18:48:12.255Z,1.50
2022-11-10T18:51:10.804Z,0.90
2022-11-10T18:54:09.729Z,0.82
2022-11-10T18:57:07.911Z,1.00
2022-11-10T19:00:07.763Z,0.70
2022-11-10T19:03:05.902Z,0.70
2022-11-10T19:06:06.037Z,1.15
2022-11-10T19:09:05.834Z,0.93
2022-11-10T19:12:04.865Z,0.57
2022-11-10T19:15:03.076Z,0.30
2022-11-10T19:18:02.066Z,0.85
2022-11-10T19:21:05.973Z,0.88
2022-11-10T19:24:04.910Z,0.77
2022-11-10T19:27:03.294Z,0.73
2022-11-10T19:30:02.190Z,2.53
2022-11-10T19:33:00.413Z,0.90
2022-11-10T19:36:04.735Z,3.60
2022-11-10T19:39:03.084Z,2.10
2022-11-10T19:42:02.252Z,1.05
2022-11-10T19:45:01.096Z,0.85
2022-11-10T19:48:00.572Z,3.83
2022-11-10T19:51:00.742Z,1.08
2022-11-10T19:54:02.226Z,2.88
2022-11-10T19:57:01.606Z,0.68
2022-11-10T20:00:00.549Z,1.20
2022-11-10T20:02:58.985Z,1.35
2022-11-10T20:06:02.886Z,1.10
2022-11-10T20:09:01.198Z,1.27
2022-11-10T20:12:00.064Z,1.10
2022-11-10T20:14:58.356Z,0.95
2022-11-10T20:17:57.209Z,0.60
2022-11-10T20:20:55.548Z,0.82
2022-11-10T20:23:56.347Z,0.88
2022-11-10T20:26:54.671Z,1.02
2022-11-10T20:29:53.668Z,0.60
2022-11-10T20:32:52.369Z,1.80
2022-11-10T20:35:51.158Z,0.47
2022-11-10T20:38:50.996Z,0.55
2022-11-10T20:41:51.457Z,0.40
2022-11-10T20:44:50.048Z,0.60
2022-11-10T20:47:48.791Z,0.70
2022-11-10T20:50:47.109Z,0.50
2022-11-10T20:53:46.754Z,0.93
2022-11-10T20:56:45.321Z,0.70
2022-11-10T20:59:44.148Z,0.82
2022-11-10T21:02:42.312Z,0.88
2022-11-10T21:05:40.999Z,0.70
2022-11-10T21:08:39.191Z,1.00
2022-11-10T21:11:53.495Z,0.75
2022-11-10T21:14:51.717Z,0.57
2022-11-10T21:17:50.509Z,0.70
2022-11-10T21:20:49.018Z,0.60
2022-11-10T21:23:47.885Z,0.60
2022-11-10T21:26:46.050Z,0.68
2022-11-10T21:29:45.096Z,0.77
2022-11-10T21:32:43.361Z,0.50
2022-11-10T21:35:42.124Z,0.63
2022-11-10T21:38:40.281Z,0.30
2022-11-10T21:41:39.480Z,0.50
2022-11-10T21:44:38.016Z,0.43
2022-11-10T21:47:36.984Z,0.73
2022-11-10T21:50:35.148Z,0.98
2022-11-10T21:53:34.841Z,0.30
2022-11-10T21:56:33.003Z,0.50
2022-11-10T21:59:31.786Z,0.38
2022-11-10T22:02:30.121Z,0.38
2022-11-10T22:05:29.296Z,0.40
2022-11-10T22:08:27.477Z,0.50
2022-11-10T22:11:41.648Z,0.73
2022-11-10T22:14:55.129Z,0.25
2022-11-10T22:18:09.489Z,0.95
2022-11-10T22:21:09.311Z,0.43
2022-11-10T22:24:23.756Z,1.40
2022-11-10T22:27:22.196Z,0.60
2022-11-10T22:30:20.868Z,6.13
2022-11-10T22:33:34.575Z,0.60
2022-11-10T22:36:33.950Z,0.63
2022-11-10T22:39:51.969Z,4.50
2022-11-10T22:43:06.072Z,2.60
2022-11-10T22:46:04.412Z,0.32
2022-11-10T22:49:06.342Z,0.45
2022-11-10T22:52:04.533Z,0.50
2022-11-10T22:55:03.273Z,1.05
2022-11-10T22:58:01.687Z,0.43
2022-11-10T23:01:10.030Z,0.38
2022-11-10T23:04:08.368Z,0.20
2022-11-10T23:07:07.332Z,0.38
2022-11-10T23:10:06.042Z,0.70
2022-11-10T23:13:04.911Z,0.68
2022-11-10T23:16:05.557Z,0.10
2022-11-10T23:19:04.673Z,0.20
2022-11-10T23:22:02.853Z,0.40
2022-11-10T23:25:01.814Z,0.22
2022-11-10T23:27:59.945Z,0.30
2022-11-10T23:31:08.812Z,0.43
2022-11-10T23:34:07.721Z,0.20
2022-11-10T23:37:06.608Z,0.43
2022-11-10T23:40:05.308Z,0.00
2022-11-10T23:43:04.050Z,0.10
2022-11-10T23:46:07.398Z,1.75
2022-11-10T23:49:06.788Z,0.30
2022-11-10T23:52:05.058Z,0.00
2022-11-10T23:55:04.072Z,0.05
2022-11-10T23:58:02.785Z,2.08
